Time;durP1;ratioP1;P1;durP2;ratioP2;P2;SDS_P1;SDS_P2;PMS_P1;PMS_P2;Temp;Humidity;BMP_temperature;BMP_pressure;BME280_temperature;BME280_humidity;BME280_pressure;Samples;Min_cycle;Max_cycle;Signal;HPM_P1;HPM_P2
2023/02/05 03:48:01;;;;;;;8.93;8.33;;;2.90;99.90;;;;;;6128402;23;20387;-76
2023/02/05 03:50:38;;;;;;;9.55;8.90;;;2.90;99.90;;;;;;6109116;23;20380;-77
2023/02/05 03:53:23;;;;;;;9.60;8.90;;;2.80;99.90;;;;;;6095191;23;20386;-76
2023/02/05 03:56:03;;;;;;;9.82;9.13;;;2.60;99.90;;;;;;6108600;23;20387;-77
2023/02/05 03:58:41;;;;;;;8.85;8.25;;;2.40;99.90;;;;;;6135288;23;20384;-77
2023/02/05 04:01:10;;;;;;;9.57;8.88;;;2.40;99.90;;;;;;6110869;23;20379;-77
2023/02/05 04:03:37;;;;;;;9.10;8.50;;;2.40;99.90;;;;;;6086698;23;20377;-77
2023/02/05 04:06:05;;;;;;;9.25;8.65;;;2.50;99.90;;;;;;6081504;23;20377;-77
2023/02/05 04:08:35;;;;;;;9.93;9.23;;;2.50;99.90;;;;;;6082970;23;20869;-77
2023/02/05 04:11:02;;;;;;;9.50;8.80;;;2.50;99.90;;;;;;6081903;23;20381;-77
2023/02/05 04:13:29;;;;;;;9.10;8.50;;;2.50;99.90;;;;;;6107650;23;20378;-77
2023/02/05 04:15:56;;;;;;;9.15;8.55;;;2.50;99.90;;;;;;6081006;23;20374;-77
2023/02/05 04:18:23;;;;;;;8.95;8.35;;;2.50;99.90;;;;;;6081677;23;20763;-77
2023/02/05 04:20:49;;;;;;;9.40;8.80;;;2.50;99.90;;;;;;6080542;23;20754;-77
2023/02/05 04:23:17;;;;;;;9.68;8.98;;;2.40;99.90;;;;;;6106098;23;20405;-77
2023/02/05 04:25:44;;;;;;;8.23;7.72;;;2.20;99.90;;;;;;6080214;23;20377;-77
2023/02/05 04:28:11;;;;;;;8.63;8.02;;;2.10;99.90;;;;;;6080113;23;20381;-78
2023/02/05 04:30:39;;;;;;;8.80;8.20;;;2.10;99.90;;;;;;6105429;23;20776;-77
2023/02/05 04:33:06;;;;;;;8.73;8.13;;;2.00;99.90;;;;;;6080506;23;20442;-77
2023/02/05 04:35:34;;;;;;;10.10;9.40;;;2.00;99.90;;;;;;6079820;23;20385;-79
2023/02/05 04:38:02;;;;;;;9.85;9.13;;;1.90;99.90;;;;;;6079852;23;20389;-77
2023/02/05 04:40:29;;;;;;;9.45;8.85;;;1.80;99.90;;;;;;6081069;23;20458;-77
2023/02/05 04:42:56;;;;;;;8.50;7.93;;;1.80;99.90;;;;;;6102631;23;20744;-77
2023/02/05 04:45:25;;;;;;;8.98;8.38;;;1.80;99.90;;;;;;6104675;23;20409;-77
2023/02/05 04:47:52;;;;;;;8.35;7.75;;;1.80;99.90;;;;;;6099055;23;20420;-77
2023/02/05 04:50:19;;;;;;;8.65;8.05;;;1.90;99.90;;;;;;6108644;23;20439;-77
2023/02/05 04:52:46;;;;;;;8.38;7.88;;;1.90;99.90;;;;;;6109202;23;20376;-77
2023/02/05 04:55:13;;;;;;;9.02;8.43;;;1.90;99.90;;;;;;6133941;23;20368;-77
2023/02/05 04:57:40;;;;;;;8.70;8.10;;;1.90;99.90;;;;;;6109087;23;20379;-77
2023/02/05 05:00:08;;;;;;;8.77;8.18;;;1.90;99.90;;;;;;6106830;23;20386;-77
2023/02/05 05:02:34;;;;;;;8.65;8.05;;;1.90;99.90;;;;;;6109054;23;20387;-77
2023/02/05 05:05:01;;;;;;;8.38;7.78;;;1.90;99.90;;;;;;6133958;23;20387;-77
2023/02/05 05:07:29;;;;;;;8.50;7.90;;;1.90;99.90;;;;;;6133910;23;20450;-77
2023/02/05 05:09:56;;;;;;;8.52;7.93;;;1.80;99.90;;;;;;6107309;23;20415;-77
2023/02/05 05:12:23;;;;;;;8.55;7.95;;;1.70;99.90;;;;;;6134131;23;20858;-77
2023/02/05 05:14:50;;;;;;;8.70;8.10;;;1.60;99.90;;;;;;6107254;23;20456;-77
2023/02/05 05:17:17;;;;;;;8.38;7.80;;;1.50;99.90;;;;;;6108772;23;20384;-77
2023/02/05 05:19:44;;;;;;;7.88;7.38;;;1.40;99.90;;;;;;6107229;23;20410;-77
2023/02/05 05:22:11;;;;;;;8.05;7.55;;;1.30;99.90;;;;;;6107872;23;20383;-77
2023/02/05 05:24:37;;;;;;;8.70;8.10;;;1.20;99.90;;;;;;6107408;23;20372;-77
2023/02/05 05:27:04;;;;;;;8.68;8.07;;;1.30;99.90;;;;;;6106008;23;20704;-77
2023/02/05 05:29:31;;;;;;;7.50;7.00;;;1.30;99.90;;;;;;6132540;23;20451;-77
2023/02/05 05:31:58;;;;;;;7.00;6.60;;;1.30;99.90;;;;;;6105320;23;20391;-77
2023/02/05 05:34:25;;;;;;;7.00;6.60;;;1.30;99.90;;;;;;6106195;23;20727;-76
2023/02/05 05:36:52;;;;;;;7.68;7.18;;;1.30;99.90;;;;;;6104549;23;20411;-77
2023/02/05 05:44:51;;;;;;;7.65;7.15;;;1.20;99.90;;;;;;6130437;23;20438;-76
2023/02/05 05:47:18;;;;;;;6.90;6.50;;;1.10;99.90;;;;;;6103492;23;20380;-77
2023/02/05 05:49:46;;;;;;;6.03;5.72;;;1.20;99.90;;;;;;6129985;23;20439;-76
2023/02/05 05:52:13;;;;;;;6.63;6.22;;;1.20;99.90;;;;;;6104199;23;20427;-77
2023/02/05 05:54:40;;;;;;;7.73;7.23;;;1.20;99.90;;;;;;6105213;23;21009;-78
2023/02/05 05:57:07;;;;;;;7.95;7.45;;;1.10;99.90;;;;;;6104427;23;20407;-77
2023/02/05 05:59:34;;;;;;;8.50;7.90;;;1.10;99.90;;;;;;6104363;23;20459;-77
2023/02/05 06:02:02;;;;;;;8.00;7.50;;;1.10;99.90;;;;;;6128758;23;20716;-77
2023/02/05 06:04:29;;;;;;;8.75;8.15;;;1.20;99.90;;;;;;6103449;23;20418;-77
2023/02/05 06:06:56;;;;;;;7.90;7.40;;;1.00;99.90;;;;;;6101322;23;20450;-78
2023/02/05 06:09:24;;;;;;;7.60;7.10;;;1.10;99.90;;;;;;6127654;23;20438;-77
2023/02/05 06:11:50;;;;;;;8.07;7.57;;;1.10;99.90;;;;;;6102073;23;20736;-77
2023/02/05 06:14:17;;;;;;;7.43;7.03;;;1.10;99.90;;;;;;6100994;23;20697;-78
2023/02/05 06:16:44;;;;;;;7.80;7.30;;;1.10;99.90;;;;;;6102561;23;20383;-77
2023/02/05 06:19:11;;;;;;;7.35;6.85;;;1.10;99.90;;;;;;6100909;23;20383;-77
2023/02/05 06:21:38;;;;;;;7.65;7.20;;;1.10;99.90;;;;;;6102195;23;20371;-77
2023/02/05 06:24:05;;;;;;;8.43;7.90;;;1.10;99.90;;;;;;6101240;23;20371;-77
2023/02/05 06:26:32;;;;;;;7.80;7.30;;;1.10;99.90;;;;;;6127563;23;20376;-76
2023/02/05 06:29:02;;;;;;;7.75;7.25;;;1.10;99.90;;;;;;6100654;23;20387;-77
2023/02/05 06:31:30;;;;;;;7.10;6.70;;;1.10;99.90;;;;;;6101806;23;20460;-77
2023/02/05 06:33:57;;;;;;;7.80;7.30;;;1.10;99.90;;;;;;6127171;23;20430;-77
2023/02/05 06:36:24;;;;;;;8.25;7.75;;;1.10;99.90;;;;;;6126277;23;20430;-77
2023/02/05 06:38:51;;;;;;;6.90;6.50;;;0.90;99.90;;;;;;6102312;23;20709;-77
2023/02/05 06:41:18;;;;;;;6.72;6.32;;;0.80;99.90;;;;;;6100381;23;20686;-77
2023/02/05 06:43:45;;;;;;;6.95;6.55;;;0.70;99.90;;;;;;6101402;23;20407;-77
2023/02/05 06:46:12;;;;;;;6.07;5.73;;;0.60;99.90;;;;;;6100307;23;20390;-76
2023/02/05 06:48:39;;;;;;;6.75;6.35;;;0.50;99.90;;;;;;6100564;23;20388;-76
2023/02/05 06:51:06;;;;;;;6.85;6.45;;;0.50;99.90;;;;;;6125430;23;20391;-78
2023/02/05 06:53:32;;;;;;;7.78;7.30;;;0.50;99.90;;;;;;6125807;23;20371;-77
2023/02/05 06:55:59;;;;;;;6.88;6.45;;;0.50;99.90;;;;;;6126135;23;20851;-76
2023/02/05 06:58:26;;;;;;;5.95;5.65;;;0.40;99.90;;;;;;6099768;23;20411;-77
2023/02/05 07:00:53;;;;;;;6.30;6.00;;;0.40;99.90;;;;;;6100667;23;20387;-76
2023/02/05 07:03:20;;;;;;;6.30;5.97;;;0.30;99.90;;;;;;6099961;23;20434;-77
2023/02/05 07:05:47;;;;;;;7.35;6.95;;;0.30;99.90;;;;;;6101884;23;20387;-76
2023/02/05 07:08:14;;;;;;;7.93;7.43;;;0.30;99.90;;;;;;6100727;23;20712;-76
2023/02/05 07:10:41;;;;;;;7.38;6.97;;;0.10;99.90;;;;;;6101050;23;20383;-77
2023/02/05 07:13:08;;;;;;;7.35;6.95;;;0.00;99.90;;;;;;6125765;23;20840;-77
2023/02/05 07:15:36;;;;;;;7.45;6.95;;;0.00;99.90;;;;;;6100155;23;20426;-76
2023/02/05 07:18:05;;;;;;;7.82;7.32;;;0.10;99.90;;;;;;6100377;23;20388;-78
2023/02/05 07:20:32;;;;;;;7.55;7.13;;;0.20;99.90;;;;;;6123171;23;20379;-79
2023/02/05 07:22:59;;;;;;;7.68;7.18;;;0.40;99.90;;;;;;6125809;23;20761;-77
2023/02/05 07:25:26;;;;;;;7.40;7.00;;;0.50;99.90;;;;;;6124544;23;20439;-77
2023/02/05 07:27:53;;;;;;;7.75;7.25;;;0.50;99.90;;;;;;6125153;23;20384;-77
2023/02/05 07:30:20;;;;;;;7.00;6.60;;;0.60;99.90;;;;;;6097769;23;20451;-77
2023/02/05 07:32:47;;;;;;;6.95;6.55;;;0.70;99.90;;;;;;6098914;23;20403;-77
2023/02/05 07:35:13;;;;;;;8.45;7.85;;;0.90;99.90;;;;;;6098357;23;20832;-77
2023/02/05 07:37:41;;;;;;;7.10;6.63;;;1.00;99.90;;;;;;6127930;23;20898;-77
2023/02/05 07:40:10;;;;;;;7.80;7.30;;;1.10;99.90;;;;;;6101319;23;20379;-78
2023/02/05 07:42:36;;;;;;;6.55;6.15;;;1.20;99.90;;;;;;6097904;23;20372;-77
2023/02/05 07:45:04;;;;;;;7.15;6.72;;;1.40;99.90;;;;;;6099505;23;20380;-78
2023/02/05 07:47:31;;;;;;;6.47;6.07;;;1.50;99.90;;;;;;6098974;23;20380;-77
2023/02/05 07:49:58;;;;;;;7.03;6.57;;;1.70;99.90;;;;;;6125794;23;20393;-77
2023/02/05 07:52:25;;;;;;;7.20;6.80;;;1.90;99.90;;;;;;6125489;23;20760;-77
2023/02/05 07:54:55;;;;;;;7.00;6.57;;;2.00;99.90;;;;;;6084996;23;20388;-77
2023/02/05 07:57:21;;;;;;;6.97;6.57;;;2.20;99.90;;;;;;6098859;23;20493;-77
2023/02/05 07:59:48;;;;;;;7.82;7.32;;;2.30;99.90;;;;;;6124125;23;20411;-78
2023/02/05 08:02:15;;;;;;;8.60;8.00;;;2.50;99.90;;;;;;6099085;23;20372;-77
2023/02/05 08:04:43;;;;;;;8.30;7.80;;;2.60;99.90;;;;;;6098050;23;20729;-77
2023/02/05 08:07:13;;;;;;;7.85;7.35;;;2.70;99.90;;;;;;6101366;23;20383;-77
2023/02/05 08:09:40;;;;;;;8.00;7.50;;;2.90;99.90;;;;;;6125510;23;20372;-77
2023/02/05 08:12:07;;;;;;;7.75;7.25;;;3.10;99.90;;;;;;6103131;23;20376;-78
2023/02/05 08:14:35;;;;;;;7.85;7.35;;;3.20;99.90;;;;;;6102339;23;20403;-77
2023/02/05 08:17:05;;;;;;;7.47;7.00;;;3.20;99.90;;;;;;6099166;23;20387;-77
2023/02/05 08:19:32;;;;;;;7.78;7.28;;;3.40;99.90;;;;;;6101207;23;20453;-77
2023/02/05 08:22:00;;;;;;;8.23;7.72;;;3.50;99.90;;;;;;6105201;23;20824;-78
2023/02/05 08:24:28;;;;;;;8.07;7.47;;;3.70;99.90;;;;;;6103313;23;20704;-78
2023/02/05 08:26:55;;;;;;;7.97;7.47;;;3.70;99.90;;;;;;6087855;23;20371;-78
2023/02/05 08:29:22;;;;;;;7.47;7.07;;;3.80;99.90;;;;;;6108776;23;20376;-78
2023/02/05 08:31:49;;;;;;;7.90;7.40;;;3.90;99.90;;;;;;6114114;23;20383;-77
2023/02/05 08:34:16;;;;;;;7.40;6.90;;;4.00;99.90;;;;;;6110360;23;20407;-77
2023/02/05 08:36:47;;;;;;;7.63;7.13;;;4.00;99.90;;;;;;6107183;23;20434;-77
2023/02/05 08:39:14;;;;;;;8.13;7.53;;;4.20;99.90;;;;;;6109056;23;20436;-77
2023/02/05 08:41:50;;;;;;;8.30;7.70;;;4.40;99.90;;;;;;6100728;23;20403;-78
2023/02/05 08:44:18;;;;;;;6.65;6.25;;;4.60;99.90;;;;;;6105232;23;20390;-76
2023/02/05 08:46:45;;;;;;;7.63;7.13;;;4.80;99.90;;;;;;6106528;23;20454;-77
2023/02/05 08:49:17;;;;;;;7.50;7.00;;;4.90;99.90;;;;;;6108932;23;20462;-78
2023/02/05 08:51:44;;;;;;;6.38;5.97;;;5.20;99.90;;;;;;6105745;23;20827;-77
2023/02/05 08:54:12;;;;;;;6.90;6.40;;;5.50;99.90;;;;;;6098932;23;20391;-77
2023/02/05 08:56:40;;;;;;;6.15;5.78;;;5.70;99.90;;;;;;6104824;23;20384;-76
2023/02/05 08:59:07;;;;;;;5.90;5.50;;;6.00;99.90;;;;;;6129131;23;20380;-76
2023/02/05 09:01:56;;;;;;;5.28;4.97;;;6.20;99.90;;;;;;6129518;23;20387;-77
2023/02/05 09:04:24;;;;;;;5.45;5.15;;;6.40;99.90;;;;;;6129670;23;20415;-78
2023/02/05 09:06:51;;;;;;;5.10;4.80;;;6.40;99.90;;;;;;6104737;23;20403;-77
2023/02/05 09:09:18;;;;;;;5.22;4.93;;;6.60;99.30;;;;;;6106240;23;20375;-77
2023/02/05 09:11:46;;;;;;;4.75;4.45;;;6.80;99.00;;;;;;6101325;23;20384;-77
2023/02/05 09:14:14;;;;;;;5.20;4.90;;;7.00;97.10;;;;;;6102751;23;20387;-77
2023/02/05 09:16:41;;;;;;;3.80;3.60;;;7.00;96.00;;;;;;6105005;23;20707;-77
2023/02/05 09:19:08;;;;;;;4.10;3.80;;;7.10;97.00;;;;;;6106606;23;20379;-77
2023/02/05 09:21:36;;;;;;;3.60;3.40;;;7.30;95.30;;;;;;6105333;23;20434;-77
2023/02/05 09:24:03;;;;;;;3.78;3.55;;;7.40;93.90;;;;;;6086968;23;20394;-77
2023/02/05 09:26:30;;;;;;;2.40;2.30;;;7.60;94.40;;;;;;6105206;23;20380;-77
2023/02/05 09:28:57;;;;;;;1.70;1.60;;;7.80;86.80;;;;;;6103449;23;20376;-77
2023/02/05 09:31:24;;;;;;;1.33;1.23;;;8.00;83.00;;;;;;6131186;23;20752;-77
2023/02/05 09:33:54;;;;;;;1.38;1.10;;;8.10;70.80;;;;;;6109643;23;20703;-78
2023/02/05 09:36:22;;;;;;;1.30;1.20;;;8.10;69.20;;;;;;6107055;23;20434;-78
2023/02/05 09:38:52;;;;;;;1.23;1.13;;;8.30;71.20;;;;;;6109062;23;20431;-77
2023/02/05 09:41:50;;;;;;;1.30;1.10;;;8.40;67.70;;;;;;6109938;23;20886;-77
2023/02/05 09:44:25;;;;;;;1.05;0.90;;;8.40;67.70;;;;;;6132167;23;20372;-78
2023/02/05 09:47:18;;;;;;;1.05;0.95;;;8.40;65.00;;;;;;6105704;23;20776;-78
2023/02/05 09:49:55;;;;;;;0.93;0.83;;;8.50;65.30;;;;;;6111330;23;20384;-77
2023/02/05 09:52:34;;;;;;;1.00;0.70;;;8.50;64.50;;;;;;6109226;23;20404;-78
2023/02/05 09:55:16;;;;;;;0.70;0.60;;;8.30;62.10;;;;;;6137778;23;20380;-78
2023/02/05 09:57:44;;;;;;;1.47;0.77;;;8.30;62.60;;;;;;6136621;23;20384;-78
2023/02/05 10:00:32;;;;;;;0.60;0.50;;;8.60;61.50;;;;;;6108140;23;20384;-76
2023/02/05 10:03:18;;;;;;;1.13;0.57;;;8.60;61.30;;;;;;6135538;23;20391;-78
2023/02/05 10:06:10;;;;;;;0.60;0.60;;;8.40;61.00;;;;;;6112345;23;20390;-77
2023/02/05 10:08:49;;;;;;;1.38;0.60;;;8.60;60.50;;;;;;6109947;23;20408;-78
2023/02/05 10:11:33;;;;;;;0.90;0.57;;;8.80;60.00;;;;;;6107615;23;20768;-78
2023/02/05 10:14:32;;;;;;;0.60;0.55;;;9.00;60.30;;;;;;6104777;23;20375;-78
2023/02/05 10:17:05;;;;;;;0.77;0.60;;;9.10;59.00;;;;;;6084382;23;20864;-78
2023/02/05 10:19:50;;;;;;;0.60;0.60;;;9.10;59.00;;;;;;6105839;23;20383;-77
2023/02/05 10:22:27;;;;;;;0.50;0.43;;;8.90;59.40;;;;;;6125611;23;20904;-78
2023/02/05 10:25:24;;;;;;;1.13;0.70;;;9.10;57.90;;;;;;6103050;23;20382;-78
2023/02/05 10:28:24;;;;;;;0.80;0.60;;;9.30;58.40;;;;;;6100397;23;20379;-77
2023/02/05 10:30:55;;;;;;;0.70;0.60;;;9.20;57.40;;;;;;6126883;23;20415;-78
2023/02/05 10:33:46;;;;;;;1.30;0.70;;;9.40;58.40;;;;;;6103473;23;20415;-77
2023/02/05 10:36:14;;;;;;;0.80;0.80;;;9.10;57.30;;;;;;6100646;23;20386;-78
2023/02/05 10:38:44;;;;;;;0.50;0.50;;;9.00;59.20;;;;;;6101891;23;20376;-78
2023/02/05 10:41:21;;;;;;;0.83;0.53;;;9.40;58.40;;;;;;6129707;23;20383;-78
2023/02/05 10:43:52;;;;;;;0.85;0.60;;;9.50;56.60;;;;;;6105878;23;20380;-78
2023/02/05 10:46:20;;;;;;;0.85;0.60;;;9.80;56.70;;;;;;6106615;23;21008;-79
2023/02/05 10:49:00;;;;;;;0.60;0.50;;;9.90;57.40;;;;;;6105510;23;20404;-78
2023/02/05 10:51:39;;;;;;;0.73;0.60;;;9.90;56.50;;;;;;6115326;23;20368;-78
2023/02/05 10:54:28;;;;;;;0.50;0.50;;;9.60;57.00;;;;;;6110522;23;20376;-78
2023/02/05 10:56:57;;;;;;;0.93;0.50;;;9.40;57.60;;;;;;6105900;23;20375;-78
2023/02/05 10:59:39;;;;;;;0.52;0.43;;;9.20;56.80;;;;;;6109306;23;20364;-79
2023/02/05 11:02:08;;;;;;;0.80;0.60;;;9.40;57.50;;;;;;6103201;23;20472;-77
2023/02/05 11:05:00;;;;;;;0.70;0.45;;;9.50;57.60;;;;;;6105285;23;20380;-79
2023/02/05 11:07:34;;;;;;;0.40;0.40;;;9.60;57.00;;;;;;6109573;23;20368;-78
2023/02/05 11:10:23;;;;;;;1.13;0.40;;;9.80;56.10;;;;;;6130132;23;20379;-78
2023/02/05 11:13:02;;;;;;;0.88;0.47;;;9.70;55.50;;;;;;6132223;23;20368;-78
2023/02/05 11:15:31;;;;;;;1.00;0.60;;;9.70;56.30;;;;;;6134794;23;20505;-78
2023/02/05 11:18:05;;;;;;;1.83;1.20;;;9.20;56.80;;;;;;6111392;23;20820;-78
2023/02/05 11:20:36;;;;;;;0.95;0.43;;;9.00;58.90;;;;;;6108877;23;20760;-78
2023/02/05 11:23:23;;;;;;;0.40;0.40;;;9.00;58.90;;;;;;6108614;23;20372;-78
2023/02/05 11:25:53;;;;;;;0.32;0.32;;;9.10;59.10;;;;;;6134747;23;20824;-78
2023/02/05 11:28:31;;;;;;;0.50;0.40;;;9.30;58.60;;;;;;6133588;23;20364;-77
2023/02/05 11:31:27;;;;;;;0.60;0.40;;;9.40;57.50;;;;;;6109114;23;20747;-78
2023/02/05 11:34:06;;;;;;;0.70;0.40;;;9.60;57.60;;;;;;6105318;23;20435;-78
2023/02/05 11:36:38;;;;;;;0.73;0.40;;;9.70;56.90;;;;;;6132388;23;20709;-79
2023/02/05 11:39:06;;;;;;;1.00;0.50;;;10.00;56.40;;;;;;6109839;23;20380;-78
2023/02/05 11:41:47;;;;;;;0.90;0.50;;;10.00;56.00;;;;;;6109793;23;20379;-78
2023/02/05 11:44:23;;;;;;;0.40;0.40;;;10.00;55.60;;;;;;6102966;23;20374;-79
2023/02/05 11:46:55;;;;;;;1.90;0.50;;;10.40;55.40;;;;;;6132820;23;20384;-79
2023/02/05 11:49:34;;;;;;;0.45;0.40;;;10.40;55.10;;;;;;6135648;23;20371;-78
2023/02/05 11:52:09;;;;;;;0.53;0.40;;;10.60;54.10;;;;;;6111997;23;20387;-78
2023/02/05 11:54:38;;;;;;;0.95;0.40;;;10.30;55.10;;;;;;6137150;23;20376;-80
2023/02/05 11:57:18;;;;;;;0.70;0.60;;;10.50;54.50;;;;;;6110644;23;20379;-78
2023/02/05 11:59:59;;;;;;;1.58;0.50;;;10.40;54.10;;;;;;6138078;23;20386;-79
2023/02/05 12:02:29;;;;;;;0.70;0.50;;;9.60;56.30;;;;;;6135430;23;20368;-78
2023/02/05 12:05:14;;;;;;;0.60;0.50;;;9.30;57.40;;;;;;6137413;23;20380;-78
2023/02/05 12:08:09;;;;;;;0.63;0.40;;;9.60;57.60;;;;;;6133362;23;20372;-78
2023/02/05 12:11:00;;;;;;;0.70;0.40;;;9.90;56.30;;;;;;6133962;23;20380;-80
2023/02/05 12:14:01;;;;;;;0.40;0.35;;;10.20;55.30;;;;;;6130327;23;20423;-79
2023/02/05 12:16:41;;;;;;;0.57;0.40;;;10.30;55.00;;;;;;6111104;23;20372;-78
2023/02/05 12:19:36;;;;;;;0.45;0.38;;;10.60;53.60;;;;;;6135831;23;20375;-78
2023/02/05 12:22:15;;;;;;;0.40;0.30;;;10.80;53.90;;;;;;6110945;23;20859;-79
2023/02/05 12:25:00;;;;;;;0.80;0.50;;;10.90;53.00;;;;;;6139061;23;20371;-78
2023/02/05 12:27:47;;;;;;;0.52;0.40;;;10.90;52.60;;;;;;6140991;23;20380;-79
2023/02/05 12:30:37;;;;;;;0.47;0.40;;;10.90;53.10;;;;;;6140854;23;20364;-78
2023/02/05 12:33:42;;;;;;;0.52;0.43;;;10.80;53.20;;;;;;6117152;23;20367;-78
2023/02/05 12:36:27;;;;;;;1.00;0.50;;;10.70;53.40;;;;;;6113268;23;20405;-79
2023/02/05 12:39:08;;;;;;;0.45;0.40;;;10.80;53.10;;;;;;6128325;23;20383;-79
2023/02/05 12:41:42;;;;;;;0.45;0.30;;;10.90;53.30;;;;;;6129854;23;20388;-79
2023/02/05 12:44:36;;;;;;;0.50;0.40;;;10.80;53.10;;;;;;6132952;23;20379;-80
2023/02/05 12:47:16;;;;;;;0.80;0.50;;;11.00;53.50;;;;;;6117787;23;20387;-79
2023/02/05 12:50:18;;;;;;;1.80;0.60;;;11.00;53.70;;;;;;6141972;23;20357;-79
2023/02/05 12:53:12;;;;;;;0.70;0.40;;;11.30;53.20;;;;;;6145175;23;20379;-79
2023/02/05 12:56:16;;;;;;;0.77;0.40;;;11.50;51.60;;;;;;6144205;23;20371;-80
2023/02/05 12:58:53;;;;;;;0.50;0.40;;;11.40;51.50;;;;;;6145787;23;20347;-80
2023/02/05 13:01:24;;;;;;;1.37;0.60;;;10.60;53.90;;;;;;6123871;23;20379;-80
2023/02/05 13:03:55;;;;;;;0.60;0.40;;;10.40;55.00;;;;;;6122154;23;20371;-79
2023/02/05 13:06:58;;;;;;;0.50;0.40;;;9.90;55.20;;;;;;6122871;23;20359;-79
2023/02/05 13:09:34;;;;;;;1.20;0.40;;;10.00;56.40;;;;;;6123023;23;20383;-79
2023/02/05 13:12:06;;;;;;;0.50;0.45;;;10.10;55.20;;;;;;6121485;23;20405;-80
2023/02/05 13:14:43;;;;;;;0.90;0.40;;;10.30;55.60;;;;;;6097371;23;20392;-80
2023/02/05 13:17:28;;;;;;;0.50;0.40;;;10.20;55.40;;;;;;6113164;23;20380;-77
2023/02/05 13:19:59;;;;;;;1.25;1.13;;;10.50;55.00;;;;;;6093667;23;20368;-78
2023/02/05 13:28:41;;;;;;;0.47;0.40;;;9.90;57.00;;;;;;6142938;23;20438;-79
2023/02/05 13:31:23;;;;;;;0.45;0.40;;;9.80;57.40;;;;;;6141941;23;20387;-78
2023/02/05 13:33:53;;;;;;;0.50;0.50;;;10.10;56.80;;;;;;6144890;23;20364;-78
2023/02/05 13:36:23;;;;;;;0.95;0.52;;;9.80;56.40;;;;;;6119830;23;20435;-78
2023/02/05 13:39:21;;;;;;;0.70;0.50;;;9.80;56.90;;;;;;6142962;23;20458;-78
2023/02/05 13:42:00;;;;;;;0.60;0.45;;;9.60;57.10;;;;;;6140271;23;20368;-79
2023/02/05 13:44:55;;;;;;;0.98;0.40;;;9.60;57.60;;;;;;6142177;23;20371;-78
2023/02/05 13:47:46;;;;;;;0.73;0.50;;;9.90;57.30;;;;;;6140498;23;20842;-78
2023/02/05 13:50:50;;;;;;;0.93;0.57;;;10.00;56.80;;;;;;6116876;23;20414;-79
2023/02/05 13:53:30;;;;;;;0.60;0.60;;;9.80;57.00;;;;;;6141052;23;20400;-79
2023/02/05 13:56:36;;;;;;;0.57;0.50;;;9.40;58.00;;;;;;6119290;23;20391;-79
2023/02/05 13:59:39;;;;;;;0.60;0.40;;;9.50;58.20;;;;;;6096134;23;20379;-78
2023/02/05 14:02:36;;;;;;;0.50;0.40;;;9.70;58.10;;;;;;6113904;23;20391;-79
2023/02/05 14:05:04;;;;;;;0.90;0.40;;;9.90;56.80;;;;;;6110015;23;20372;-78
2023/02/05 14:07:42;;;;;;;0.57;0.40;;;9.70;57.70;;;;;;6146636;23;20378;-78
2023/02/05 14:10:43;;;;;;;0.55;0.50;;;9.40;58.20;;;;;;6142003;23;20368;-78
2023/02/05 14:13:31;;;;;;;1.00;0.73;;;9.10;59.40;;;;;;6116202;23;20375;-79
2023/02/05 14:16:23;;;;;;;0.70;0.40;;;9.00;60.40;;;;;;6141626;23;20383;-78
2023/02/05 14:18:59;;;;;;;1.08;0.55;;;9.00;60.40;;;;;;6141082;23;20423;-78
2023/02/05 14:21:48;;;;;;;1.75;1.65;;;9.20;60.10;;;;;;6140936;23;20372;-78
2023/02/05 14:24:39;;;;;;;0.40;0.40;;;9.20;59.50;;;;;;6115665;23;20371;-78
2023/02/05 14:27:24;;;;;;;0.40;0.40;;;9.40;59.30;;;;;;6140987;23;20400;-78
2023/02/05 14:29:52;;;;;;;0.45;0.30;;;9.50;58.90;;;;;;6139643;23;20430;-78
2023/02/05 14:32:28;;;;;;;0.80;0.40;;;9.40;58.70;;;;;;6116695;23;20383;-78
2023/02/05 14:35:21;;;;;;;0.80;0.55;;;9.10;59.10;;;;;;6140208;23;20407;-78
2023/02/05 14:37:48;;;;;;;0.55;0.40;;;9.00;60.20;;;;;;6142934;23;20360;-78
2023/02/05 14:40:24;;;;;;;1.00;0.80;;;9.10;60.00;;;;;;6133803;23;20372;-78
2023/02/05 14:43:21;;;;;;;1.02;0.93;;;9.10;58.70;;;;;;6138912;23;20387;-78
2023/02/05 14:45:50;;;;;;;1.20;0.60;;;9.10;58.20;;;;;;6110435;23;20422;-78
2023/02/05 14:48:31;;;;;;;1.50;1.17;;;9.20;57.90;;;;;;6111037;23;20402;-78
2023/02/05 14:51:08;;;;;;;6.53;6.10;;;9.00;57.80;;;;;;6088901;23;20385;-78
2023/02/05 14:53:39;;;;;;;2.70;2.50;;;8.90;57.30;;;;;;6088959;23;20397;-80
2023/02/05 14:56:07;;;;;;;1.17;1.10;;;8.90;57.20;;;;;;6105158;23;20381;-78
2023/02/05 14:58:39;;;;;;;1.00;0.43;;;8.80;58.60;;;;;;6112048;23;20362;-78
2023/02/05 15:01:32;;;;;;;1.20;0.30;;;8.80;57.10;;;;;;6111825;23;20746;-79
2023/02/05 15:04:01;;;;;;;0.30;0.30;;;8.80;56.80;;;;;;6087514;23;20529;-78
2023/02/05 15:06:35;;;;;;;0.50;0.30;;;8.80;55.90;;;;;;6086468;23;20368;-78
2023/02/05 15:09:19;;;;;;;0.30;0.30;;;8.80;55.50;;;;;;6086328;23;20382;-79
2023/02/05 15:12:21;;;;;;;0.50;0.35;;;8.70;54.10;;;;;;6088797;23;20421;-78
2023/02/05 15:14:54;;;;;;;0.30;0.30;;;8.70;54.80;;;;;;6111216;23;20821;-78
2023/02/05 15:17:34;;;;;;;0.63;0.35;;;8.60;54.80;;;;;;6086285;23;20378;-79
2023/02/05 15:20:23;;;;;;;1.00;0.50;;;8.50;55.30;;;;;;6111678;23;20402;-78
2023/02/05 15:23:03;;;;;;;0.87;0.40;;;8.50;55.30;;;;;;6111670;23;20385;-79
2023/02/05 15:25:49;;;;;;;0.52;0.40;;;8.40;55.50;;;;;;6088936;23;20439;-78
2023/02/05 15:28:30;;;;;;;0.40;0.30;;;8.40;55.70;;;;;;6089516;23;20372;-78
2023/02/05 15:31:25;;;;;;;0.90;0.40;;;8.40;56.60;;;;;;6089918;23;20421;-79
2023/02/05 15:34:15;;;;;;;0.80;0.40;;;8.40;57.70;;;;;;6088545;23;20830;-78
2023/02/05 15:37:12;;;;;;;0.80;0.40;;;8.40;57.90;;;;;;6088458;23;20377;-79
2023/02/05 15:40:03;;;;;;;0.38;0.35;;;8.40;58.30;;;;;;6080511;23;20365;-78
2023/02/05 15:42:36;;;;;;;0.40;0.40;;;8.40;58.90;;;;;;6089621;23;20409;-78
2023/02/05 15:45:39;;;;;;;0.50;0.50;;;8.30;59.40;;;;;;6087666;23;20385;-79
2023/02/05 15:48:12;;;;;;;0.40;0.40;;;8.30;59.50;;;;;;6062533;23;20425;-79
2023/02/05 15:50:54;;;;;;;0.70;0.60;;;8.30;60.00;;;;;;6087748;23;20409;-79
2023/02/05 15:53:37;;;;;;;0.40;0.40;;;8.30;60.20;;;;;;6086097;23;20718;-79
2023/02/05 15:56:36;;;;;;;0.82;0.40;;;8.20;60.30;;;;;;6088986;23;20888;-79
2023/02/05 15:59:03;;;;;;;0.90;0.40;;;8.10;60.90;;;;;;6071231;23;20377;-79
2023/02/05 16:01:34;;;;;;;0.50;0.50;;;8.10;61.40;;;;;;6089245;23;20382;-78
2023/02/05 16:04:27;;;;;;;1.70;0.95;;;8.10;61.50;;;;;;6089140;23;20377;-79
2023/02/05 16:06:55;;;;;;;3.72;3.53;;;8.00;61.00;;;;;;6089727;23;20378;-79
2023/02/05 16:09:26;;;;;;;2.45;2.25;;;8.00;61.30;;;;;;6112987;23;20365;-79
2023/02/05 16:11:54;;;;;;;2.00;0.40;;;7.90;61.30;;;;;;6089437;23;20389;-79
2023/02/05 16:14:27;;;;;;;1.40;0.40;;;7.90;60.80;;;;;;6089629;23;20377;-80
2023/02/05 16:17:05;;;;;;;0.60;0.40;;;7.90;60.60;;;;;;6114481;23;20432;-78
2023/02/05 16:19:43;;;;;;;0.40;0.40;;;7.90;60.60;;;;;;6089140;23;20869;-79
2023/02/05 16:22:23;;;;;;;0.77;0.40;;;7.80;60.90;;;;;;6088977;23;20381;-79
2023/02/05 16:24:53;;;;;;;1.20;0.70;;;7.80;61.30;;;;;;6089886;23;20781;-78
2023/02/05 16:27:33;;;;;;;0.52;0.50;;;7.80;61.40;;;;;;6087591;23;20385;-79
2023/02/05 16:30:06;;;;;;;0.95;0.50;;;7.70;61.60;;;;;;6088163;23;20464;-78
2023/02/05 16:32:43;;;;;;;0.40;0.40;;;7.70;62.10;;;;;;6089913;23;20385;-78
2023/02/05 16:35:24;;;;;;;1.00;0.40;;;7.70;62.00;;;;;;6115175;23;20484;-78
2023/02/05 16:37:52;;;;;;;0.65;0.60;;;7.70;62.10;;;;;;6090123;23;20377;-79
2023/02/05 16:40:39;;;;;;;0.50;0.50;;;7.70;62.40;;;;;;6089156;23;20392;-78
2023/02/05 16:43:26;;;;;;;1.73;0.60;;;7.70;62.60;;;;;;6116199;23;20384;-78
2023/02/05 16:46:06;;;;;;;0.68;0.60;;;7.70;62.80;;;;;;6110662;23;21591;-78
2023/02/05 16:48:37;;;;;;;1.10;0.50;;;7.70;62.90;;;;;;6108990;23;20746;-79
2023/02/05 16:51:34;;;;;;;0.70;0.50;;;7.70;63.10;;;;;;6120356;23;20443;-79
2023/02/05 16:54:29;;;;;;;0.57;0.50;;;7.70;63.10;;;;;;6119509;23;20372;-78
2023/02/05 16:56:58;;;;;;;0.93;0.50;;;7.60;63.20;;;;;;6118477;23;20411;-79
2023/02/05 16:59:34;;;;;;;1.17;0.50;;;7.60;63.80;;;;;;6120376;23;20380;-78
2023/02/05 17:02:02;;;;;;;0.52;0.50;;;7.50;63.80;;;;;;6119743;23;20380;-78
2023/02/05 17:04:33;;;;;;;0.70;0.50;;;7.50;64.10;;;;;;6120854;23;20759;-78
2023/02/05 17:07:03;;;;;;;0.75;0.60;;;7.50;64.30;;;;;;6118692;23;20882;-80
2023/02/05 17:09:35;;;;;;;0.70;0.50;;;7.50;64.80;;;;;;6138931;23;20387;-77
2023/02/05 17:12:20;;;;;;;0.50;0.50;;;7.50;64.90;;;;;;6106426;23;20900;-78
2023/02/05 17:15:03;;;;;;;1.63;0.80;;;7.50;65.20;;;;;;6109224;23;20372;-76
2023/02/05 17:17:31;;;;;;;0.90;0.80;;;7.50;65.10;;;;;;6126778;23;20392;-77
2023/02/05 17:20:16;;;;;;;1.10;0.70;;;7.50;65.10;;;;;;6107909;23;20404;-79
2023/02/05 17:23:04;;;;;;;1.65;1.55;;;7.50;65.50;;;;;;6143457;23;20387;-79
2023/02/05 17:25:40;;;;;;;5.07;4.78;;;7.50;65.20;;;;;;6145538;23;20386;-78
2023/02/05 17:28:12;;;;;;;0.82;0.80;;;7.50;65.10;;;;;;6117666;23;20827;-79
2023/02/05 17:30:41;;;;;;;0.65;0.60;;;7.50;64.00;;;;;;6118296;23;20384;-78
2023/02/05 17:33:09;;;;;;;0.73;0.60;;;7.50;64.20;;;;;;6117298;23;20368;-79
2023/02/05 17:35:36;;;;;;;0.80;0.63;;;7.50;65.00;;;;;;6110644;23;20376;-79